Time;durP1;ratioP1;P1;durP2;ratioP2;P2;SDS_P1;SDS_P2;PMS_P1;PMS_P2;Temp;Humidity;BMP_temperature;BMP_pressure;BME280_temperature;BME280_humidity;BME280_pressure;Samples;Min_cycle;Max_cycle;Signal;HPM_P1;HPM_P2
2023/01/12 00:01:18;;;;;;;2.13;1.40;;;;;;;6.42;100.00;97268.28;5071204;28;20573;-61
2023/01/12 00:03:44;;;;;;;2.70;1.47;;;;;;;6.38;100.00;97261.53;5070662;28;20213;-61
2023/01/12 00:06:13;;;;;;;3.57;1.53;;;;;;;6.38;100.00;97269.41;5070778;28;20568;-60
2023/01/12 00:08:39;;;;;;;4.97;1.70;;;;;;;6.47;100.00;97284.59;5071114;28;20227;-61
2023/01/12 00:11:07;;;;;;;5.30;1.87;;;;;;;6.46;100.00;97282.91;5070624;28;20221;-59
2023/01/12 00:13:34;;;;;;;3.23;1.30;;;;;;;6.51;100.00;97275.56;5071037;28;20206;-59
2023/01/12 00:18:46;;;;;;;2.87;1.40;;;;;;;6.48;100.00;97271.31;5070390;28;20239;-60
2023/01/12 00:21:13;;;;;;;4.73;1.63;;;;;;;6.41;100.00;97264.81;5071004;28;20214;-61
2023/01/12 00:23:39;;;;;;;3.07;1.57;;;;;;;6.34;100.00;97265.34;5070982;28;20210;-60
2023/01/12 00:26:08;;;;;;;4.47;1.40;;;;;;;6.34;100.00;97255.66;5070656;28;20230;-61
2023/01/12 00:28:34;;;;;;;2.20;1.23;;;;;;;6.38;100.00;97258.91;5071651;28;20204;-60
2023/01/12 00:31:01;;;;;;;2.23;1.57;;;;;;;6.40;100.00;97265.78;5074784;28;20194;-61
2023/01/12 00:33:27;;;;;;;4.47;1.50;;;;;;;6.39;100.00;97260.59;5074509;28;20858;-61
2023/01/12 00:35:54;;;;;;;2.83;1.60;;;;;;;6.50;100.00;97253.69;5074612;28;20221;-59
2023/01/12 00:38:21;;;;;;;2.90;1.30;;;;;;;6.50;100.00;97252.84;5074298;28;20627;-61
2023/01/12 00:40:48;;;;;;;3.83;1.27;;;;;;;6.63;100.00;97264.19;5073871;28;20745;-61
2023/01/12 00:45:59;;;;;;;1.47;1.10;;;;;;;6.64;100.00;97268.53;5074319;28;20213;-61
2023/01/12 00:48:26;;;;;;;3.00;1.33;;;;;;;6.61;100.00;97274.00;5074428;28;20206;-61
2023/01/12 00:50:52;;;;;;;3.07;1.67;;;;;;;6.57;100.00;97263.78;5074080;28;20650;-60
2023/01/12 00:53:19;;;;;;;3.67;1.87;;;;;;;6.61;100.00;97275.78;5074457;28;20209;-61
2023/01/12 00:55:47;;;;;;;4.53;1.57;;;;;;;6.59;100.00;97278.50;5073760;28;20198;-60
2023/01/12 00:58:13;;;;;;;1.63;1.23;;;;;;;6.53;100.00;97272.81;5074191;28;20206;-61
2023/01/12 01:00:41;;;;;;;4.90;1.73;;;;;;;6.55;100.00;97271.78;5073710;28;20617;-60
2023/01/12 01:03:08;;;;;;;5.20;1.50;;;;;;;6.41;100.00;97272.69;5074496;28;20203;-60
2023/01/12 01:05:34;;;;;;;2.77;1.40;;;;;;;6.30;100.00;97269.09;5074263;28;20221;-61
2023/01/12 01:08:00;;;;;;;2.90;1.57;;;;;;;6.20;100.00;97278.53;5073801;28;20647;-61
2023/01/12 01:10:27;;;;;;;4.87;1.50;;;;;;;6.07;100.00;97282.88;5075899;28;20233;-60
2023/01/12 01:12:53;;;;;;;2.77;1.13;;;;;;;5.96;100.00;97271.31;5077632;28;20205;-61
2023/01/12 01:15:22;;;;;;;2.73;1.27;;;;;;;5.86;100.00;97272.84;5074066;28;20206;-60
2023/01/12 01:17:50;;;;;;;5.33;1.40;;;;;;;5.71;100.00;97279.03;5078004;28;21368;-60
2023/01/12 01:20:17;;;;;;;1.73;1.30;;;;;;;5.59;100.00;97285.06;5078326;28;20294;-60
2023/01/12 01:22:43;;;;;;;2.67;1.43;;;;;;;5.55;100.00;97285.34;5078168;28;20646;-61
2023/01/12 01:25:10;;;;;;;2.70;1.53;;;;;;;5.58;100.00;97285.16;5073088;28;20565;-61
2023/01/12 01:27:36;;;;;;;1.73;1.00;;;;;;;5.57;100.00;97283.47;5073916;28;20210;-60
2023/01/12 01:30:03;;;;;;;2.40;1.17;;;;;;;5.58;100.00;97278.13;5073674;28;20234;-61
2023/01/12 01:32:29;;;;;;;2.23;1.17;;;;;;;5.60;100.00;97272.81;5087639;28;20599;-61
2023/01/12 01:34:57;;;;;;;2.87;1.50;;;;;;;5.58;100.00;97270.25;5090219;28;20190;-61
2023/01/12 01:37:24;;;;;;;3.43;1.30;;;;;;;5.48;100.00;97264.78;5084646;28;20202;-61
2023/01/12 01:39:50;;;;;;;4.13;1.60;;;;;;;5.48;100.00;97263.91;5083633;28;20638;-60
2023/01/12 01:42:26;;;;;;;2.90;1.10;;;;;;;5.40;100.00;97255.69;5084402;28;20240;-61
2023/01/12 01:44:54;;;;;;;1.20;1.00;;;;;;;5.33;100.00;97259.63;5077141;28;20206;-60
2023/01/12 01:47:30;;;;;;;3.07;1.47;;;;;;;5.28;100.00;97256.47;5075858;28;20213;-61
2023/01/12 01:50:00;;;;;;;2.90;1.30;;;;;;;5.11;100.00;97260.13;5086312;28;20206;-61
2023/01/12 01:52:29;;;;;;;2.63;1.30;;;;;;;5.08;100.00;97259.47;5088305;28;20213;-61
2023/01/12 01:54:59;;;;;;;2.30;1.20;;;;;;;4.99;100.00;97256.47;5088617;28;20217;-61
2023/01/12 01:57:31;;;;;;;2.10;1.20;;;;;;;5.05;100.00;97254.41;5095776;28;20242;-61
2023/01/12 01:59:58;;;;;;;2.70;1.10;;;;;;;5.03;100.00;97263.19;5095682;28;20206;-61
2023/01/12 02:02:25;;;;;;;4.07;1.93;;;;;;;5.08;100.00;97254.22;5095784;28;20600;-61
2023/01/12 02:04:52;;;;;;;3.93;1.57;;;;;;;5.09;100.00;97250.66;5081235;28;20202;-60
2023/01/12 02:07:20;;;;;;;1.47;1.30;;;;;;;5.23;100.00;97242.78;5073212;28;20249;-61
2023/01/12 02:09:47;;;;;;;7.90;1.60;;;;;;;5.31;100.00;97248.41;5072452;28;20238;-61
2023/01/12 02:17:50;;;;;;;4.00;1.40;;;;;;;5.65;100.00;97249.72;5094643;28;20202;-61
2023/01/12 02:20:32;;;;;;;4.00;1.57;;;;;;;5.69;100.00;97251.22;5083494;28;20194;-61
2023/01/12 02:23:25;;;;;;;2.80;1.20;;;;;;;5.70;100.00;97261.63;5072947;28;20195;-61
2023/01/12 02:26:11;;;;;;;4.73;1.80;;;;;;;5.70;100.00;97252.91;5072381;28;20202;-60
2023/01/12 02:28:55;;;;;;;6.17;1.40;;;;;;;5.70;100.00;97260.78;5072591;28;20204;-61
2023/01/12 02:31:41;;;;;;;4.40;1.33;;;;;;;5.72;100.00;97266.75;5071713;28;20619;-60
2023/01/12 02:34:15;;;;;;;4.70;1.37;;;;;;;5.71;100.00;97262.44;5072204;28;20213;-60
2023/01/12 02:36:50;;;;;;;4.23;1.40;;;;;;;5.80;100.00;97265.34;5072417;28;20198;-60
2023/01/12 02:39:21;;;;;;;2.60;1.33;;;;;;;5.84;100.00;97260.75;5083756;28;20201;-61
2023/01/12 02:44:38;;;;;;;3.13;1.17;;;;;;;5.87;100.00;97247.44;5095927;28;20185;-62
2023/01/12 02:47:09;;;;;;;7.10;1.90;;;;;;;5.83;100.00;97254.63;5093584;28;20206;-61
2023/01/12 02:49:39;;;;;;;3.63;1.27;;;;;;;5.82;100.00;97252.09;5073009;28;20225;-60
2023/01/12 02:52:08;;;;;;;3.60;1.67;;;;;;;5.80;100.00;97257.47;5070667;28;20203;-61
2023/01/12 02:54:35;;;;;;;1.90;1.00;;;;;;;5.80;100.00;97246.13;5071364;28;20221;-60
2023/01/12 02:57:04;;;;;;;3.07;1.07;;;;;;;5.78;100.00;97246.22;5071780;28;20199;-60
2023/01/12 02:59:33;;;;;;;3.90;1.67;;;;;;;5.75;100.00;97246.41;5071416;28;20195;-61
2023/01/12 03:02:02;;;;;;;6.10;1.27;;;;;;;5.72;100.00;97224.78;5072053;28;20199;-60
2023/01/12 03:04:32;;;;;;;4.30;1.60;;;;;;;5.69;100.00;97228.44;5071505;28;20207;-60
2023/01/12 03:07:28;;;;;;;3.80;1.87;;;;;;;5.69;100.00;97222.34;5071422;28;20198;-60
2023/01/12 03:09:56;;;;;;;5.43;2.13;;;;;;;5.62;100.00;97211.41;5070263;28;20666;-61
2023/01/12 03:12:26;;;;;;;4.10;1.57;;;;;;;5.58;100.00;97207.31;5071571;28;20210;-60
2023/01/12 03:14:53;;;;;;;1.90;1.13;;;;;;;5.53;100.00;97201.50;5071731;28;20198;-60
2023/01/12 03:17:24;;;;;;;3.53;1.10;;;;;;;5.48;100.00;97200.97;5073028;28;20206;-60
2023/01/12 03:19:53;;;;;;;3.10;1.10;;;;;;;5.45;100.00;97195.94;5073332;28;20646;-60
2023/01/12 03:22:20;;;;;;;3.07;1.37;;;;;;;5.45;100.00;97181.03;5074663;28;20213;-60
2023/01/12 03:24:50;;;;;;;2.43;1.23;;;;;;;5.50;100.00;97175.47;5075035;28;20202;-61
2023/01/12 03:27:18;;;;;;;5.60;1.07;;;;;;;5.51;100.00;97180.63;5073231;28;20203;-61
2023/01/12 03:29:49;;;;;;;2.47;1.20;;;;;;;5.55;100.00;97183.91;5072697;28;20230;-61
2023/01/12 03:32:17;;;;;;;2.80;1.20;;;;;;;5.56;100.00;97185.59;5071177;28;20201;-61
2023/01/12 03:34:44;;;;;;;3.20;1.70;;;;;;;5.54;100.00;97200.56;5071240;28;20206;-61
2023/01/12 03:37:19;;;;;;;3.90;1.13;;;;;;;5.55;100.00;97197.00;5071037;28;20206;-60
2023/01/12 03:39:52;;;;;;;3.60;1.37;;;;;;;5.51;100.00;97192.91;5071026;28;20388;-60
2023/01/12 03:42:24;;;;;;;2.30;0.97;;;;;;;5.48;100.00;97190.47;5070899;28;20202;-60
2023/01/12 03:44:57;;;;;;;4.00;1.10;;;;;;;5.43;100.00;97192.53;5071501;28;20213;-60
2023/01/12 03:47:28;;;;;;;2.80;1.17;;;;;;;5.39;100.00;97198.91;5071285;28;20211;-60
2023/01/12 03:49:57;;;;;;;5.53;1.63;;;;;;;5.32;100.00;97200.25;5071670;28;20214;-61
2023/01/12 03:52:26;;;;;;;4.37;1.80;;;;;;;5.25;100.00;97205.03;5071876;28;20511;-61
2023/01/12 03:54:55;;;;;;;3.07;1.20;;;;;;;5.14;100.00;97209.25;5072021;28;20441;-61
2023/01/12 03:57:22;;;;;;;5.67;1.77;;;;;;;5.03;100.00;97210.78;5072142;28;20590;-60
2023/01/12 03:59:50;;;;;;;6.27;1.43;;;;;;;4.93;100.00;97204.44;5071891;28;20225;-61
2023/01/12 04:02:16;;;;;;;2.97;1.80;;;;;;;4.88;100.00;97197.81;5071542;28;20217;-60
2023/01/12 04:04:43;;;;;;;4.63;1.37;;;;;;;4.86;100.00;97187.41;5070963;28;20198;-60
2023/01/12 04:07:09;;;;;;;6.93;1.40;;;;;;;4.75;100.00;97179.34;5070994;28;20210;-61
2023/01/12 04:09:37;;;;;;;4.03;1.13;;;;;;;4.69;100.00;97178.91;5071087;28;20542;-61
2023/01/12 04:12:10;;;;;;;4.40;1.77;;;;;;;4.68;100.00;97183.28;5071441;28;20217;-62
2023/01/12 04:14:37;;;;;;;2.17;1.57;;;;;;;4.63;100.00;97174.03;5071658;28;20229;-60
2023/01/12 04:17:03;;;;;;;4.17;1.20;;;;;;;4.60;100.00;97174.22;5071602;28;20206;-60
2023/01/12 04:19:30;;;;;;;1.90;1.30;;;;;;;4.61;100.00;97192.47;5071053;28;20225;-61
2023/01/12 04:24:42;;;;;;;4.27;1.67;;;;;;;4.68;100.00;97203.41;5069978;28;20205;-60
2023/01/12 04:27:08;;;;;;;2.13;1.43;;;;;;;4.71;100.00;97190.97;5070672;28;20198;-60
2023/01/12 04:29:35;;;;;;;4.03;1.63;;;;;;;4.85;100.00;97190.13;5070591;28;20209;-61
2023/01/12 04:32:02;;;;;;;4.17;1.80;;;;;;;4.91;100.00;97189.75;5070331;28;20744;-61
2023/01/12 04:34:28;;;;;;;8.10;1.80;;;;;;;5.07;100.00;97195.69;5070458;28;20210;-60
2023/01/12 04:36:54;;;;;;;4.67;2.03;;;;;;;5.48;100.00;97190.47;5070473;28;20218;-61
2023/01/12 04:39:21;;;;;;;4.30;1.83;;;;;;;5.50;100.00;97193.81;5070044;28;20532;-60
2023/01/12 04:41:49;;;;;;;4.20;1.60;;;;;;;5.60;100.00;97179.19;5070333;28;20205;-60
2023/01/12 04:44:15;;;;;;;5.23;1.73;;;;;;;5.59;100.00;97182.75;5070621;28;20194;-61
2023/01/12 04:46:42;;;;;;;5.00;1.90;;;;;;;5.65;100.00;97182.34;5070177;28;20674;-61
2023/01/12 04:49:08;;;;;;;2.77;1.63;;;;;;;5.65;100.00;97177.09;5070651;28;20206;-60
2023/01/12 04:51:35;;;;;;;5.23;1.67;;;;;;;5.69;100.00;97181.22;5071302;28;20222;-60
2023/01/12 04:54:01;;;;;;;4.50;1.73;;;;;;;5.75;100.00;97193.94;5071269;28;20210;-61
2023/01/12 04:56:28;;;;;;;3.00;1.53;;;;;;;5.79;100.00;97194.56;5071658;28;20206;-59
2023/01/12 04:58:59;;;;;;;3.47;1.47;;;;;;;5.79;100.00;97195.41;5071336;28;20217;-61
2023/01/12 05:01:28;;;;;;;3.83;1.37;;;;;;;5.83;100.00;97202.16;5069498;28;20245;-60
2023/01/12 05:03:55;;;;;;;3.60;1.87;;;;;;;5.83;100.00;97202.16;5071094;28;20206;-61
2023/01/12 05:06:22;;;;;;;5.20;1.63;;;;;;;5.88;100.00;97202.72;5070309;28;20223;-60
2023/01/12 05:11:32;;;;;;;5.60;1.80;;;;;;;5.96;100.00;97182.06;5069375;28;20307;-59
2023/01/12 05:14:01;;;;;;;3.60;1.57;;;;;;;6.03;100.00;97179.00;5070031;28;20233;-60
2023/01/12 05:16:28;;;;;;;4.03;1.73;;;;;;;6.07;100.00;97186.59;5072227;28;20263;-59
2023/01/12 05:18:55;;;;;;;2.53;1.40;;;;;;;6.14;99.89;97189.63;5073494;28;20213;-60
2023/01/12 05:21:22;;;;;;;2.97;1.40;;;;;;;6.21;98.92;97180.41;5073475;28;20293;-59
2023/01/12 05:23:49;;;;;;;3.73;1.57;;;;;;;6.20;98.37;97182.19;5074093;28;20194;-60
2023/01/12 05:26:16;;;;;;;2.47;1.63;;;;;;;6.24;98.67;97180.19;5072913;28;20217;-61
2023/01/12 05:28:43;;;;;;;8.23;2.37;;;;;;;6.32;98.21;97177.91;5073644;28;20210;-59
2023/01/12 05:31:13;;;;;;;3.57;1.43;;;;;;;6.38;96.25;97180.09;5073235;28;20313;-61
2023/01/12 05:33:41;;;;;;;4.27;1.47;;;;;;;6.39;96.96;97171.28;5073638;28;20199;-60
2023/01/12 05:36:09;;;;;;;2.90;1.80;;;;;;;6.47;95.80;97187.38;5073167;28;20541;-61
2023/01/12 05:38:36;;;;;;;3.87;1.17;;;;;;;6.55;95.35;97179.81;5073551;28;20207;-60
2023/01/12 05:41:06;;;;;;;2.53;1.37;;;;;;;6.67;92.76;97193.88;5072618;28;20218;-61
2023/01/12 05:43:50;;;;;;;2.90;1.17;;;;;;;6.65;94.45;97198.41;5073072;28;20209;-61
2023/01/12 05:46:20;;;;;;;3.97;1.63;;;;;;;6.62;93.79;97194.22;5073184;28;20216;-60
2023/01/12 05:48:46;;;;;;;4.00;1.50;;;;;;;6.77;92.45;97194.91;5073345;28;20215;-60
2023/01/12 05:51:13;;;;;;;3.90;1.50;;;;;;;6.79;92.31;97193.91;5072887;28;20230;-60
2023/01/12 05:53:40;;;;;;;3.70;1.37;;;;;;;6.78;91.17;97186.94;5073149;28;20234;-61
2023/01/12 05:56:08;;;;;;;3.27;1.17;;;;;;;6.72;92.44;97194.41;5072606;28;20194;-61
2023/01/12 05:58:35;;;;;;;3.10;1.37;;;;;;;6.76;91.37;97201.16;5073164;28;20202;-60
2023/01/12 06:01:01;;;;;;;3.63;1.77;;;;;;;6.72;92.57;97207.56;5073050;28;20222;-61
2023/01/12 06:03:29;;;;;;;5.87;1.97;;;;;;;6.68;92.48;97201.69;5072931;28;20557;-62
2023/01/12 06:05:57;;;;;;;2.93;1.10;;;;;;;6.71;91.85;97200.59;5073202;28;20281;-60
2023/01/12 06:08:24;;;;;;;4.37;1.70;;;;;;;6.78;89.28;97186.94;5072962;28;20206;-60
2023/01/12 06:10:50;;;;;;;3.57;1.40;;;;;;;6.75;90.41;97184.53;5072345;28;20233;-60
2023/01/12 06:16:03;;;;;;;4.43;1.20;;;;;;;6.83;92.43;97190.09;5072782;28;20571;-59
2023/01/12 06:18:33;;;;;;;2.97;1.50;;;;;;;6.98;91.99;97175.88;5072700;28;20241;-58
2023/01/12 06:21:00;;;;;;;4.27;1.60;;;;;;;7.09;91.41;97176.88;5071538;28;20214;-59
2023/01/12 06:23:26;;;;;;;4.43;1.47;;;;;;;7.10;90.78;97166.28;5071964;28;20210;-58
2023/01/12 06:25:53;;;;;;;5.80;1.70;;;;;;;7.07;89.71;97176.19;5071387;28;20222;-58
2023/01/12 06:28:20;;;;;;;2.33;1.27;;;;;;;7.14;88.61;97172.16;5072729;28;20526;-58
2023/01/12 06:30:54;;;;;;;2.87;1.20;;;;;;;7.26;90.72;97172.09;5074180;28;20226;-57
2023/01/12 06:33:21;;;;;;;5.73;1.40;;;;;;;7.32;86.34;97162.97;5073400;28;20622;-59
2023/01/12 06:35:49;;;;;;;3.07;1.27;;;;;;;7.38;86.59;97170.41;5075209;28;20265;-61
2023/01/12 06:38:16;;;;;;;4.17;1.37;;;;;;;7.34;84.44;97179.47;5075161;28;20211;-61
2023/01/12 06:40:42;;;;;;;2.77;1.20;;;;;;;7.29;84.76;97181.59;5074852;28;20206;-60
2023/01/12 06:43:09;;;;;;;6.90;1.40;;;;;;;7.27;86.00;97188.75;5076110;28;20225;-60
2023/01/12 06:45:35;;;;;;;2.93;1.10;;;;;;;7.22;86.19;97180.34;5071452;28;20205;-61
2023/01/12 06:48:02;;;;;;;3.60;1.10;;;;;;;7.16;85.82;97175.50;5071788;28;20213;-61
2023/01/12 06:50:28;;;;;;;3.80;1.37;;;;;;;7.11;85.63;97164.50;5071840;28;20198;-62
2023/01/12 06:52:59;;;;;;;7.80;1.53;;;;;;;7.06;85.75;97169.22;5073571;28;20216;-61
2023/01/12 06:55:25;;;;;;;6.33;2.70;;;;;;;7.14;85.29;97175.63;5074913;28;20209;-62
2023/01/12 06:57:52;;;;;;;4.53;1.10;;;;;;;7.33;81.88;97172.53;5074372;28;20210;-61
2023/01/12 07:00:19;;;;;;;4.70;1.50;;;;;;;7.19;83.22;97184.03;5080100;28;20301;-59
2023/01/12 07:02:49;;;;;;;6.77;1.33;;;;;;;7.13;83.49;97179.22;5081733;28;20203;-59
2023/01/12 07:05:15;;;;;;;3.33;1.47;;;;;;;7.15;83.78;97179.09;5078070;28;20198;-61
2023/01/12 07:07:42;;;;;;;6.87;1.33;;;;;;;7.13;84.19;97170.47;5076609;28;20511;-61
2023/01/12 07:10:11;;;;;;;3.50;1.37;;;;;;;7.25;82.09;97170.44;5075661;28;20248;-61
2023/01/12 07:12:38;;;;;;;4.07;1.23;;;;;;;7.19;82.95;97180.56;5078334;28;20662;-62
2023/01/12 07:15:05;;;;;;;5.10;2.30;;;;;;;7.27;80.53;97172.97;5082206;28;20194;-61
2023/01/12 07:17:32;;;;;;;5.17;1.77;;;;;;;7.25;81.56;97164.34;5081830;28;20221;-62
2023/01/12 07:19:58;;;;;;;1.73;1.00;;;;;;;7.20;81.53;97155.94;5083492;28;20213;-61
2023/01/12 07:22:26;;;;;;;5.13;1.37;;;;;;;7.21;81.87;97149.72;5084797;28;20210;-64
2023/01/12 07:24:52;;;;;;;4.90;1.30;;;;;;;7.20;80.04;97138.38;5084971;28;20194;-61
2023/01/12 07:27:20;;;;;;;4.97;1.27;;;;;;;7.21;80.13;97133.94;5084627;28;20202;-59
2023/01/12 07:29:46;;;;;;;4.40;1.30;;;;;;;7.20;80.65;97137.53;5090791;28;20196;-60
2023/01/12 07:32:13;;;;;;;4.00;1.60;;;;;;;7.22;80.37;97149.63;5094930;28;20222;-62
2023/01/12 07:34:39;;;;;;;3.70;1.67;;;;;;;7.24;80.04;97146.88;5080540;28;20191;-61
2023/01/12 07:37:06;;;;;;;4.47;1.27;;;;;;;7.27;80.09;97149.28;5074425;28;20214;-61
2023/01/12 07:39:34;;;;;;;2.77;1.00;;;;;;;7.22;80.31;97149.63;5073235;28;20202;-60
2023/01/12 07:44:46;;;;;;;3.77;1.50;;;;;;;7.21;80.87;97149.72;5071073;28;20298;-61
2023/01/12 07:47:12;;;;;;;5.13;1.20;;;;;;;7.29;79.68;97155.28;5071290;28;20634;-61
2023/01/12 07:49:39;;;;;;;4.47;1.87;;;;;;;7.33;80.89;97154.13;5071901;28;20207;-62
2023/01/12 07:52:06;;;;;;;2.17;1.20;;;;;;;7.31;80.13;97156.00;5071603;28;20218;-60
2023/01/12 07:54:34;;;;;;;3.03;1.50;;;;;;;7.26;80.37;97155.50;5071187;28;21313;-61
2023/01/12 07:57:01;;;;;;;3.10;1.20;;;;;;;7.27;80.93;97155.38;5087644;28;20289;-62
2023/01/12 07:59:27;;;;;;;1.17;0.90;;;;;;;7.37;79.53;97152.94;5089112;28;20203;-61
2023/01/12 08:01:55;;;;;;;5.30;1.17;;;;;;;7.41;78.43;97147.34;5087483;28;20217;-60
2023/01/12 08:04:22;;;;;;;3.50;1.10;;;;;;;7.33;78.93;97156.75;5071426;28;20202;-61
2023/01/12 08:06:49;;;;;;;4.63;1.37;;;;;;;7.36;78.89;97146.84;5070035;28;20213;-61
2023/01/12 08:09:15;;;;;;;2.80;1.27;;;;;;;7.39;78.93;97145.78;5071652;28;20217;-60
2023/01/12 08:11:43;;;;;;;2.87;1.00;;;;;;;7.42;78.48;97158.72;5071291;28;20271;-61
2023/01/12 08:14:12;;;;;;;4.43;1.20;;;;;;;7.43;78.66;97157.75;5071418;28;20210;-61
2023/01/12 08:16:41;;;;;;;3.07;1.30;;;;;;;7.44;77.82;97160.25;5071252;28;20198;-62
2023/01/12 08:19:13;;;;;;;2.17;1.30;;;;;;;7.53;78.16;97173.72;5071081;28;20201;-61
2023/01/12 08:21:44;;;;;;;3.97;1.57;;;;;;;7.62;77.70;97184.41;5086302;28;20195;-59
2023/01/12 08:24:13;;;;;;;4.00;1.33;;;;;;;7.61;78.22;97176.63;5088422;28;20255;-60
2023/01/12 08:26:43;;;;;;;2.23;1.13;;;;;;;7.63;78.31;97170.31;5092272;28;20194;-61
2023/01/12 08:29:12;;;;;;;3.80;1.00;;;;;;;7.60;77.21;97164.41;5088055;28;20236;-65
2023/01/12 08:31:39;;;;;;;3.33;1.03;;;;;;;7.69;78.64;97172.47;5070874;28;20674;-61
2023/01/12 08:34:06;;;;;;;3.43;1.17;;;;;;;7.74;78.53;97173.00;5079774;28;20202;-60
2023/01/12 08:36:34;;;;;;;2.00;0.73;;;;;;;7.78;79.40;97158.66;5079839;28;20214;-60
2023/01/12 08:39:03;;;;;;;2.87;1.00;;;;;;;7.85;77.23;97156.41;5071383;28;20962;-61
2023/01/12 08:41:32;;;;;;;2.80;1.10;;;;;;;7.85;77.98;97174.84;5077599;28;20211;-61
2023/01/12 08:44:01;;;;;;;2.70;1.43;;;;;;;7.92;75.96;97176.06;5080386;28;20209;-60
2023/01/12 08:46:28;;;;;;;4.07;1.27;;;;;;;7.90;77.60;97165.63;5077494;28;20198;-61
2023/01/12 08:48:54;;;;;;;3.47;1.37;;;;;;;7.91;76.73;97169.94;5070576;28;20653;-60
2023/01/12 08:51:21;;;;;;;2.63;1.00;;;;;;;7.92;76.55;97174.28;5072877;28;20229;-61
2023/01/12 08:53:48;;;;;;;4.10;1.37;;;;;;;7.95;76.77;97176.69;5075004;28;20206;-61
2023/01/12 08:56:15;;;;;;;4.03;1.60;;;;;;;7.99;76.58;97177.28;5073742;28;20555;-60
2023/01/12 08:58:41;;;;;;;2.63;1.13;;;;;;;8.03;76.41;97186.66;5073900;28;20314;-60
2023/01/12 09:01:09;;;;;;;3.30;1.20;;;;;;;7.99;76.93;97186.03;5073622;28;20895;-61
2023/01/12 09:03:36;;;;;;;3.23;1.83;;;;;;;8.00;77.56;97187.72;5074100;28;20213;-61
2023/01/12 09:06:09;;;;;;;5.33;1.27;;;;;;;7.99;75.96;97193.09;5074004;28;20213;-60
2023/01/12 09:08:35;;;;;;;3.90;1.27;;;;;;;8.04;75.31;97195.38;5074288;28;20199;-62
2023/01/12 09:11:04;;;;;;;6.70;1.50;;;;;;;8.04;76.54;97184.84;5073676;28;20209;-61
2023/01/12 09:13:32;;;;;;;4.03;1.27;;;;;;;8.06;77.33;97169.75;5074984;28;20206;-61
2023/01/12 09:16:02;;;;;;;2.73;1.20;;;;;;;8.08;77.22;97166.06;5076428;28;20207;-60
2023/01/12 09:18:28;;;;;;;2.87;1.40;;;;;;;8.07;77.17;97167.03;5075171;28;20195;-61
2023/01/12 09:21:00;;;;;;;4.27;1.03;;;;;;;8.09;77.59;97162.47;5074061;28;20209;-60
2023/01/12 09:23:26;;;;;;;3.67;1.30;;;;;;;8.21;74.75;97147.53;5074159;28;20195;-60
2023/01/12 09:25:53;;;;;;;3.03;1.10;;;;;;;8.19;76.47;97145.00;5073638;28;20191;-61
2023/01/12 09:28:21;;;;;;;3.80;0.93;;;;;;;8.31;75.71;97140.66;5074138;28;20191;-61
2023/01/12 09:30:47;;;;;;;4.53;1.47;;;;;;;8.33;74.35;97154.53;5074062;28;20209;-60
2023/01/12 09:33:15;;;;;;;4.17;0.80;;;;;;;8.34;74.52;97153.59;5073235;28;20222;-61
2023/01/12 09:35:43;;;;;;;2.00;1.00;;;;;;;8.33;75.48;97159.81;5073453;28;20195;-61
2023/01/12 09:38:10;;;;;;;2.83;1.10;;;;;;;8.43;75.29;97156.34;5073730;28;20222;-61
2023/01/12 09:40:37;;;;;;;3.83;1.40;;;;;;;8.48;74.45;97162.13;5078041;28;20211;-60
2023/01/12 09:48:33;;;;;;;2.87;1.20;;;;;;;8.65;74.25;97165.25;5081671;28;20578;-61
2023/01/12 09:51:06;;;;;;;1.90;1.13;;;;;;;8.75;73.67;97172.31;5076499;28;20233;-60
2023/01/12 09:53:35;;;;;;;3.60;1.37;;;;;;;8.74;73.71;97169.81;5076585;28;20202;-60
2023/01/12 09:56:06;;;;;;;3.40;0.90;;;;;;;8.73;74.38;97171.63;5073278;28;20545;-62
2023/01/12 09:58:53;;;;;;;3.70;1.30;;;;;;;8.81;73.71;97161.31;5075948;28;20201;-61
2023/01/12 10:01:22;;;;;;;2.60;1.00;;;;;;;8.86;74.51;97163.56;5073360;28;20682;-61
2023/01/12 10:03:49;;;;;;;4.17;1.17;;;;;;;8.99;73.08;97159.03;5074996;28;20256;-61
2023/01/12 10:06:17;;;;;;;5.10;1.37;;;;;;;8.88;72.99;97154.59;5073450;28;20209;-58
2023/01/12 10:08:46;;;;;;;3.23;1.57;;;;;;;8.98;71.58;97168.75;5079650;28;20210;-61
2023/01/12 10:11:18;;;;;;;3.30;1.10;;;;;;;9.05;72.88;97181.44;5085351;28;20202;-61
2023/01/12 10:13:57;;;;;;;2.20;1.47;;;;;;;9.05;72.94;97174.38;5080553;28;20198;-61
2023/01/12 10:16:31;;;;;;;4.60;1.60;;;;;;;9.03;74.75;97183.38;5082347;28;20203;-61
2023/01/12 10:18:59;;;;;;;3.07;1.03;;;;;;;9.11;72.23;97183.59;5077202;28;20209;-60
2023/01/12 10:21:26;;;;;;;1.67;0.93;;;;;;;9.12;71.47;97191.41;5073163;28;20204;-59
2023/01/12 10:23:53;;;;;;;2.77;1.30;;;;;;;9.00;72.03;97185.28;5072979;28;20779;-59
2023/01/12 10:26:22;;;;;;;3.00;1.17;;;;;;;9.03;71.42;97189.50;5072838;28;20198;-61
2023/01/12 10:28:51;;;;;;;3.63;1.50;;;;;;;8.89;73.02;97180.00;5073457;28;20753;-61
2023/01/12 10:31:21;;;;;;;3.77;1.60;;;;;;;8.87;72.04;97175.81;5072481;28;20290;-60
2023/01/12 10:34:03;;;;;;;3.70;1.33;;;;;;;8.78;72.84;97177.38;5072482;28;20660;-61
2023/01/12 10:36:30;;;;;;;2.67;1.20;;;;;;;8.67;73.89;97174.72;5072636;28;20198;-62
2023/01/12 10:38:59;;;;;;;7.33;1.23;;;;;;;8.72;73.97;97177.00;5072077;28;20214;-61
2023/01/12 10:41:27;;;;;;;1.90;1.03;;;;;;;8.64;75.23;97172.34;5072617;28;20631;-61
2023/01/12 10:44:16;;;;;;;1.67;1.00;;;;;;;8.68;74.91;97165.03;5072331;28;20195;-61
2023/01/12 10:46:42;;;;;;;3.03;1.27;;;;;;;8.74;74.38;97170.66;5072799;28;20199;-61
2023/01/12 10:49:18;;;;;;;2.63;0.83;;;;;;;8.75;74.04;97177.59;5072783;28;20580;-61
2023/01/12 10:51:51;;;;;;;2.70;1.20;;;;;;;8.53;74.54;97172.31;5072144;28;20206;-61
2023/01/12 10:54:19;;;;;;;3.47;1.10;;;;;;;8.56;75.97;97172.09;5070798;28;20223;-61
2023/01/12 10:56:55;;;;;;;3.37;1.10;;;;;;;8.54;75.77;97173.97;5072140;28;20658;-60
2023/01/12 10:59:23;;;;;;;5.00;1.50;;;;;;;8.40;77.34;97168.91;5072773;28;20542;-61
2023/01/12 11:01:54;;;;;;;2.43;1.43;;;;;;;8.45;77.00;97174.69;5075050;28;20238;-60
2023/01/12 11:04:28;;;;;;;3.23;1.50;;;;;;;8.53;77.37;97160.94;5082393;28;20276;-60
2023/01/12 11:07:00;;;;;;;3.30;1.57;;;;;;;8.51;78.36;97158.41;5081924;28;20638;-61
2023/01/12 11:09:29;;;;;;;3.83;1.47;;;;;;;8.60;77.73;97141.91;5074575;28;20301;-60
2023/01/12 11:11:57;;;;;;;2.10;1.00;;;;;;;8.53;76.51;97139.84;5072272;28;20202;-60
2023/01/12 11:14:27;;;;;;;2.20;0.77;;;;;;;8.63;76.90;97130.25;5070790;28;20206;-60
2023/01/12 11:16:54;;;;;;;2.20;0.87;;;;;;;8.69;75.46;97129.78;5071756;28;20206;-60
2023/01/12 11:19:26;;;;;;;2.90;1.20;;;;;;;8.78;75.17;97122.00;5071900;28;20203;-60
2023/01/12 11:21:57;;;;;;;1.93;1.00;;;;;;;8.82;74.62;97107.59;5071630;28;20241;-59
2023/01/12 11:24:40;;;;;;;2.97;1.10;;;;;;;8.92;75.54;97116.50;5071498;28;20203;-60
2023/01/12 11:27:13;;;;;;;3.33;1.40;;;;;;;8.94;75.97;97105.78;5072001;28;20199;-59
2023/01/12 11:29:45;;;;;;;2.50;1.00;;;;;;;8.96;76.39;97107.34;5071474;28;20520;-57
2023/01/12 11:32:14;;;;;;;4.30;1.43;;;;;;;8.86;76.14;97100.28;5071130;28;20225;-59
2023/01/12 11:34:52;;;;;;;2.93;1.37;;;;;;;8.93;75.73;97097.03;5071404;28;20202;-58
2023/01/12 11:37:19;;;;;;;3.67;1.40;;;;;;;9.00;75.13;97087.69;5071952;28;20229;-60
2023/01/12 11:39:51;;;;;;;3.60;1.00;;;;;;;9.05;74.81;97083.84;5071803;28;20198;-60
2023/01/12 11:45:09;;;;;;;2.03;1.30;;;;;;;9.18;75.12;97089.78;5071636;28;20198;-59
2023/01/12 11:47:38;;;;;;;3.20;1.97;;;;;;;9.19;75.26;97091.47;5071338;28;20613;-58
2023/01/12 11:50:13;;;;;;;4.83;1.60;;;;;;;9.25;74.24;97085.69;5071275;28;20212;-59
2023/01/12 11:52:40;;;;;;;3.93;1.40;;;;;;;9.25;74.74;97075.16;5070911;28;20689;-59
2023/01/12 11:55:12;;;;;;;2.20;1.37;;;;;;;9.22;74.68;97065.69;5071193;28;20523;-59
2023/01/12 11:57:53;;;;;;;3.83;1.20;;;;;;;9.28;74.43;97067.81;5071008;28;20191;-59
2023/01/12 12:00:27;;;;;;;4.17;1.10;;;;;;;9.29;73.56;97066.88;5070970;28;20230;-58
2023/01/12 12:03:03;;;;;;;2.73;1.13;;;;;;;9.24;74.90;97057.66;5071030;28;20194;-58
2023/01/12 12:05:38;;;;;;;3.83;1.27;;;;;;;9.26;75.18;97055.72;5071213;28;20251;-61
2023/01/12 12:08:17;;;;;;;3.33;1.30;;;;;;;9.29;74.69;97053.66;5070748;28;20650;-59
2023/01/12 12:10:49;;;;;;;2.73;1.33;;;;;;;9.24;74.63;97057.66;5071124;28;20198;-58
2023/01/12 12:13:24;;;;;;;3.33;1.10;;;;;;;9.21;75.89;97047.34;5071456;28;20210;-58
2023/01/12 12:15:57;;;;;;;3.90;1.33;;;;;;;9.27;75.93;97049.50;5072160;28;20198;-58
2023/01/12 12:18:36;;;;;;;2.87;1.00;;;;;;;9.20;75.19;97040.41;5074449;28;20221;-58
2023/01/12 12:21:10;;;;;;;3.03;1.00;;;;;;;9.23;76.10;97051.53;5075845;28;20217;-60